createdAt,value
2018-09-03T00:02:14.957Z,14.00
2018-09-03T00:04:44.281Z,14.00
2018-09-03T00:07:13.487Z,14.00
2018-09-03T00:09:43.275Z,13.90
2018-09-03T00:12:12.975Z,13.70
2018-09-03T00:14:42.620Z,13.70
2018-09-03T00:17:11.952Z,13.70
2018-09-03T00:19:41.201Z,13.70
2018-09-03T00:22:10.495Z,13.70
2018-09-03T00:24:39.799Z,13.80
2018-09-03T00:27:09.346Z,13.60
2018-09-03T00:29:38.675Z,13.20
2018-09-03T00:32:13.265Z,12.90
2018-09-03T00:34:48.535Z,12.90
2018-09-03T00:37:23.171Z,12.80
2018-09-03T00:39:57.427Z,12.90
2018-09-03T00:42:31.791Z,12.80
2018-09-03T00:45:06.314Z,12.80
2018-09-03T00:47:35.596Z,12.80
2018-09-03T00:50:05.297Z,12.90
2018-09-03T00:52:34.581Z,12.80
2018-09-03T00:55:03.894Z,12.70
2018-09-03T00:57:33.470Z,12.80
2018-09-03T01:00:03.379Z,12.80
2018-09-03T01:02:32.701Z,12.80
2018-09-03T01:05:01.936Z,12.80
2018-09-03T01:07:31.325Z,12.80
2018-09-03T01:10:00.811Z,12.80
2018-09-03T01:12:30.102Z,12.60
2018-09-03T01:14:59.461Z,12.50
2018-09-03T01:17:28.582Z,12.50
2018-09-03T01:19:58.462Z,12.50
2018-09-03T01:22:27.681Z,12.50
2018-09-03T01:24:57.185Z,12.40
2018-09-03T01:27:26.503Z,12.40
2018-09-03T01:29:56.038Z,12.40
2018-09-03T01:32:25.371Z,12.30
2018-09-03T01:34:54.610Z,12.30
2018-09-03T01:37:24.171Z,12.30
2018-09-03T01:39:53.624Z,12.20
2018-09-03T01:42:22.908Z,12.10
2018-09-03T01:44:52.143Z,12.00
2018-09-03T01:47:21.705Z,11.90
2018-09-03T01:49:51.222Z,11.90
2018-09-03T01:52:20.468Z,11.90
2018-09-03T01:54:49.843Z,11.90
2018-09-03T01:57:19.018Z,12.00
2018-09-03T01:59:48.289Z,12.10
2018-09-03T02:02:17.696Z,12.00
2018-09-03T02:04:47.000Z,12.00
2018-09-03T02:07:16.427Z,11.90
2018-09-03T02:09:46.775Z,11.80
2018-09-03T02:12:16.413Z,11.80
2018-09-03T02:14:45.788Z,11.80
2018-09-03T02:17:15.692Z,11.70
2018-09-03T02:19:45.138Z,11.80
2018-09-03T02:22:15.287Z,11.70
2018-09-03T02:24:44.565Z,11.60
2018-09-03T02:27:14.080Z,11.60
2018-09-03T02:29:43.059Z,11.60
2018-09-03T02:32:12.541Z,11.50
2018-09-03T02:34:42.080Z,11.40
2018-09-03T02:37:11.338Z,11.30
2018-09-03T02:39:40.949Z,11.40
2018-09-03T02:42:10.271Z,11.40
2018-09-03T02:44:39.461Z,11.50
2018-09-03T02:47:08.762Z,11.40
2018-09-03T02:49:37.942Z,11.30
2018-09-03T02:52:07.172Z,11.40
2018-09-03T02:54:36.328Z,11.50
2018-09-03T02:57:06.626Z,11.40
2018-09-03T02:59:36.006Z,11.30
2018-09-03T03:02:05.330Z,11.40
2018-09-03T03:04:34.580Z,11.40
2018-09-03T03:07:03.744Z,11.40
2018-09-03T03:09:33.066Z,11.30
2018-09-03T03:12:02.411Z,11.20
2018-09-03T03:14:31.582Z,11.30
2018-09-03T03:17:01.132Z,11.30
2018-09-03T03:19:30.311Z,11.30
2018-09-03T03:21:59.501Z,11.20
2018-09-03T03:24:28.755Z,11.10
2018-09-03T03:26:58.259Z,11.10
2018-09-03T03:29:27.703Z,11.00
2018-09-03T03:31:56.998Z,10.80
2018-09-03T03:34:26.352Z,10.80
2018-09-03T03:36:55.561Z,10.90
2018-09-03T03:39:24.830Z,10.80
2018-09-03T03:41:54.163Z,10.80
2018-09-03T03:44:23.543Z,10.80
2018-09-03T03:46:52.500Z,10.70
2018-09-03T03:49:21.671Z,10.90
2018-09-03T03:51:50.957Z,11.00
2018-09-03T03:54:20.514Z,11.00
2018-09-03T03:56:50.011Z,11.00
2018-09-03T03:59:19.492Z,11.10
2018-09-03T04:01:48.726Z,11.10
2018-09-03T04:04:17.945Z,11.00
2018-09-03T04:06:47.043Z,11.00
2018-09-03T04:09:17.585Z,11.10
2018-09-03T04:11:46.797Z,10.90
2018-09-03T04:14:15.936Z,11.00
2018-09-03T04:16:45.385Z,11.00
2018-09-03T04:19:14.711Z,11.00
2018-09-03T04:21:43.856Z,11.00
2018-09-03T04:24:13.349Z,11.10
2018-09-03T04:26:42.685Z,11.00
2018-09-03T04:29:11.913Z,11.00
2018-09-03T04:31:40.938Z,11.00
2018-09-03T04:34:10.412Z,11.00
2018-09-03T04:36:39.686Z,11.00
2018-09-03T04:39:09.993Z,11.00
2018-09-03T04:41:39.231Z,11.10
2018-09-03T04:44:08.752Z,11.20
2018-09-03T04:46:38.100Z,11.20
2018-09-03T04:49:07.192Z,11.20
2018-09-03T04:51:36.523Z,11.20
2018-09-03T04:54:05.704Z,11.20
2018-09-03T04:56:35.368Z,11.30
2018-09-03T04:59:04.925Z,11.30
2018-09-03T05:01:34.205Z,11.10
2018-09-03T05:04:03.600Z,11.20
2018-09-03T05:06:33.017Z,11.30
2018-09-03T05:09:02.345Z,11.40
2018-09-03T05:11:31.667Z,11.50
2018-09-03T05:14:01.448Z,11.50
2018-09-03T05:16:31.160Z,11.40
2018-09-03T05:19:00.509Z,11.40
2018-09-03T05:21:30.185Z,11.30
2018-09-03T05:23:59.332Z,11.30
2018-09-03T05:26:28.818Z,11.50
2018-09-03T05:28:58.055Z,11.70
2018-09-03T05:31:27.513Z,11.90
2018-09-03T05:34:01.951Z,12.00
2018-09-03T05:36:31.091Z,12.10
2018-09-03T05:39:00.862Z,12.20
2018-09-03T05:41:30.216Z,12.20
2018-09-03T05:43:59.563Z,12.40
2018-09-03T05:46:28.610Z,12.50
2018-09-03T05:48:57.892Z,12.60
2018-09-03T05:51:27.003Z,12.80
2018-09-03T05:53:56.261Z,13.00
2018-09-03T05:56:25.507Z,13.30
2018-09-03T05:58:54.643Z,13.50
2018-09-03T06:01:23.904Z,13.70
2018-09-03T06:03:53.519Z,13.80
2018-09-03T06:06:22.596Z,14.00
2018-09-03T06:08:51.899Z,13.90
2018-09-03T06:11:21.032Z,14.00
2018-09-03T06:13:50.238Z,14.10
2018-09-03T06:16:20.635Z,14.30
2018-09-03T06:18:50.011Z,14.40
2018-09-03T06:21:19.449Z,14.50
2018-09-03T06:23:48.493Z,14.50
2018-09-03T06:26:17.795Z,14.60
2018-09-03T06:28:46.910Z,14.60
2018-09-03T06:31:16.159Z,14.80
2018-09-03T06:33:45.392Z,15.00
2018-09-03T06:36:15.020Z,15.20
2018-09-03T06:38:44.416Z,15.40
2018-09-03T06:41:13.699Z,15.50
2018-09-03T06:43:42.859Z,15.60
2018-09-03T06:46:12.131Z,15.70
2018-09-03T06:48:41.476Z,15.80
2018-09-03T06:51:10.580Z,16.00
2018-09-03T06:53:40.108Z,16.20
2018-09-03T06:56:09.581Z,16.30
2018-09-03T06:58:38.680Z,16.50
2018-09-03T07:01:08.206Z,16.60
2018-09-03T07:03:37.576Z,16.70
2018-09-03T07:06:06.937Z,16.80
2018-09-03T07:08:36.459Z,17.00
2018-09-03T07:11:06.091Z,17.10
2018-09-03T07:13:35.399Z,17.20
2018-09-03T07:16:04.663Z,17.40
2018-09-03T07:18:33.883Z,17.50
2018-09-03T07:21:03.312Z,17.70
2018-09-03T07:23:32.649Z,18.00
2018-09-03T07:26:02.006Z,18.10
2018-09-03T07:28:31.304Z,18.30
2018-09-03T07:31:00.731Z,18.30
2018-09-03T07:33:29.976Z,18.50
2018-09-03T07:35:59.553Z,18.70
2018-09-03T07:38:28.988Z,18.70
2018-09-03T07:40:58.311Z,18.80
2018-09-03T07:43:27.528Z,19.00
2018-09-03T07:45:57.240Z,19.10
2018-09-03T07:48:26.868Z,19.20
2018-09-03T07:50:56.305Z,19.20
2018-09-03T07:53:25.736Z,19.40
2018-09-03T07:55:55.068Z,19.50
2018-09-03T07:58:24.119Z,19.80
2018-09-03T08:00:53.339Z,19.80
2018-09-03T08:03:22.619Z,19.80
2018-09-03T08:05:51.972Z,19.80
2018-09-03T08:08:21.272Z,20.10
2018-09-03T08:10:50.733Z,20.30
2018-09-03T08:13:25.460Z,20.30
2018-09-03T08:15:54.598Z,20.60
2018-09-03T08:18:23.807Z,20.90
2018-09-03T08:20:52.945Z,21.00
2018-09-03T08:23:22.450Z,20.80
2018-09-03T08:25:51.687Z,21.10
2018-09-03T08:28:21.067Z,21.40
2018-09-03T08:30:50.316Z,21.30
2018-09-03T08:33:20.081Z,21.50
2018-09-03T08:35:49.680Z,21.50
2018-09-03T08:38:19.061Z,21.60
2018-09-03T08:40:48.329Z,21.70
2018-09-03T08:43:18.272Z,21.40
2018-09-03T08:45:47.864Z,21.70
2018-09-03T08:48:17.879Z,21.90
2018-09-03T08:50:47.101Z,22.00
2018-09-03T08:53:16.998Z,21.90
2018-09-03T08:55:46.069Z,22.10
2018-09-03T08:58:15.243Z,22.10
2018-09-03T09:00:44.846Z,22.50
2018-09-03T09:03:19.173Z,22.70
2018-09-03T09:05:48.564Z,21.90
2018-09-03T09:08:17.637Z,22.20
2018-09-03T09:10:46.868Z,22.10
2018-09-03T09:13:18.767Z,22.60
2018-09-03T09:15:48.383Z,21.80
2018-09-03T09:18:17.691Z,22.70
2018-09-03T09:20:47.474Z,23.40
2018-09-03T09:23:16.927Z,23.30
2018-09-03T09:25:46.221Z,23.70
2018-09-03T09:28:15.702Z,23.70
2018-09-03T09:30:44.990Z,23.70
2018-09-03T09:33:14.077Z,23.40
2018-09-03T09:35:43.554Z,23.60
2018-09-03T09:38:12.684Z,23.70
2018-09-03T09:40:41.973Z,23.50
2018-09-03T09:43:11.378Z,24.20
2018-09-03T09:45:40.373Z,24.40
2018-09-03T09:48:09.869Z,23.80
2018-09-03T09:50:39.199Z,23.20
2018-09-03T09:53:08.546Z,23.70
2018-09-03T09:55:37.755Z,23.80
2018-09-03T09:58:07.577Z,23.90
2018-09-03T10:00:41.894Z,24.00
2018-09-03T10:03:11.263Z,24.30
2018-09-03T10:05:40.543Z,24.40
2018-09-03T10:08:10.340Z,24.00
2018-09-03T10:10:39.705Z,24.00
2018-09-03T10:13:08.920Z,24.60
2018-09-03T10:15:38.268Z,24.30
2018-09-03T10:18:07.339Z,24.50
2018-09-03T10:20:36.613Z,24.70
2018-09-03T10:23:06.012Z,24.90
2018-09-03T10:25:35.338Z,24.50
2018-09-03T10:28:04.500Z,24.50
2018-09-03T10:30:34.127Z,24.70
2018-09-03T10:33:03.874Z,23.90
2018-09-03T10:35:33.006Z,24.60
2018-09-03T10:38:02.208Z,24.70
2018-09-03T10:40:31.348Z,24.20
2018-09-03T10:43:00.576Z,24.90
2018-09-03T10:45:29.717Z,25.60
2018-09-03T10:48:03.623Z,25.60
2018-09-03T10:50:33.442Z,24.80
2018-09-03T10:53:03.215Z,25.00
2018-09-03T10:55:32.458Z,25.50
2018-09-03T10:58:01.690Z,25.00
2018-09-03T11:00:30.971Z,24.40
2018-09-03T11:03:00.295Z,24.80
2018-09-03T11:05:29.429Z,25.40
2018-09-03T11:07:58.810Z,25.90
2018-09-03T11:10:28.117Z,26.00
2018-09-03T11:12:57.426Z,25.90
2018-09-03T11:15:26.693Z,25.70
2018-09-03T11:17:55.897Z,26.30
2018-09-03T11:20:29.206Z,26.70
2018-09-03T11:22:59.204Z,25.60
2018-09-03T11:25:30.797Z,25.20
2018-09-03T11:28:00.033Z,26.00
2018-09-03T11:30:29.725Z,26.30
2018-09-03T11:33:01.234Z,25.70
2018-09-03T11:35:30.617Z,26.00
2018-09-03T11:37:59.939Z,26.50
2018-09-03T11:40:29.030Z,26.40
2018-09-03T11:42:58.316Z,25.80
2018-09-03T11:45:27.652Z,26.10
2018-09-03T11:47:56.983Z,25.80
2018-09-03T11:50:26.319Z,26.60
2018-09-03T11:52:55.519Z,25.50
2018-09-03T11:55:25.318Z,25.90
2018-09-03T11:57:54.735Z,25.90
2018-09-03T12:00:30.477Z,26.50
2018-09-03T12:03:00.531Z,26.70
2018-09-03T12:05:30.314Z,25.60
2018-09-03T12:07:59.593Z,25.60
2018-09-03T12:10:28.823Z,25.20
2018-09-03T12:12:58.569Z,25.00
2018-09-03T12:15:33.098Z,25.40
2018-09-03T12:18:03.508Z,25.40
2018-09-03T12:20:32.781Z,25.00
2018-09-03T12:23:02.009Z,24.90
2018-09-03T12:25:31.264Z,25.60
2018-09-03T12:28:00.427Z,26.20
2018-09-03T12:30:29.621Z,26.30
2018-09-03T12:32:58.745Z,26.30
2018-09-03T12:35:27.912Z,26.30
2018-09-03T12:37:57.128Z,25.50
2018-09-03T12:40:26.352Z,25.70
2018-09-03T12:42:56.319Z,25.80
2018-09-03T12:45:30.379Z,25.60
2018-09-03T12:47:59.982Z,25.80
2018-09-03T12:50:29.443Z,25.70
2018-09-03T12:52:59.463Z,25.60
2018-09-03T12:55:28.664Z,25.50
2018-09-03T12:57:57.801Z,25.80
2018-09-03T13:00:27.280Z,25.90
2018-09-03T13:02:56.263Z,25.70
2018-09-03T13:05:25.452Z,25.40
2018-09-03T13:07:54.728Z,24.70
2018-09-03T13:10:24.195Z,24.20
2018-09-03T13:12:53.693Z,24.70
2018-09-03T13:15:23.284Z,24.70
2018-09-03T13:17:52.398Z,25.20
2018-09-03T13:20:21.678Z,25.20
2018-09-03T13:22:50.851Z,24.90
2018-09-03T13:25:20.379Z,24.70
2018-09-03T13:27:49.621Z,24.50
2018-09-03T13:30:18.728Z,24.40
2018-09-03T13:32:48.145Z,23.80
2018-09-03T13:35:17.320Z,23.80
2018-09-03T13:37:48.216Z,24.00
2018-09-03T13:40:17.172Z,24.10
2018-09-03T13:42:46.292Z,24.30
2018-09-03T13:45:16.287Z,24.90
2018-09-03T13:47:46.172Z,24.90
2018-09-03T13:50:15.572Z,24.40
2018-09-03T13:52:45.075Z,24.30
2018-09-03T13:55:14.436Z,24.10
2018-09-03T13:57:44.108Z,24.10
2018-09-03T14:00:14.240Z,23.80
2018-09-03T14:02:50.239Z,23.60
2018-09-03T14:05:19.480Z,23.50
2018-09-03T14:07:48.806Z,23.30
2018-09-03T14:10:18.017Z,23.20
2018-09-03T14:12:47.715Z,23.10
2018-09-03T14:15:17.147Z,23.00
2018-09-03T14:17:46.772Z,23.20
2018-09-03T14:20:16.181Z,23.10
2018-09-03T14:22:45.703Z,22.70
2018-09-03T14:25:15.130Z,22.90
2018-09-03T14:27:44.391Z,22.80
2018-09-03T14:30:13.619Z,22.60
2018-09-03T14:32:42.834Z,22.60
2018-09-03T14:35:12.140Z,22.50
2018-09-03T14:37:41.758Z,22.40
2018-09-03T14:40:11.585Z,22.10
2018-09-03T14:42:40.719Z,22.40
2018-09-03T14:45:10.418Z,22.30
2018-09-03T14:47:39.747Z,22.30
2018-09-03T14:50:09.154Z,22.20
2018-09-03T14:52:38.557Z,21.80
2018-09-03T14:55:08.021Z,21.70
2018-09-03T14:57:37.575Z,21.70
2018-09-03T15:00:07.475Z,21.60
2018-09-03T15:02:37.239Z,21.30
2018-09-03T15:05:06.562Z,21.20
2018-09-03T15:07:36.290Z,21.10
2018-09-03T15:10:05.506Z,21.10
2018-09-03T15:12:34.708Z,21.10
2018-09-03T15:15:04.052Z,21.00
2018-09-03T15:17:33.358Z,20.90
2018-09-03T15:20:02.573Z,20.80
2018-09-03T15:22:36.718Z,20.90
2018-09-03T15:25:06.392Z,21.10
2018-09-03T15:27:35.629Z,21.10
2018-09-03T15:30:04.940Z,20.80
2018-09-03T15:32:34.202Z,20.80
2018-09-03T15:35:03.476Z,20.60
2018-09-03T15:37:32.526Z,20.70
2018-09-03T15:40:02.321Z,20.60
2018-09-03T15:42:31.670Z,20.60
2018-09-03T15:45:01.162Z,20.70
2018-09-03T15:47:30.361Z,20.50
2018-09-03T15:49:59.854Z,20.10
2018-09-03T15:52:29.274Z,20.10
2018-09-03T15:54:58.450Z,19.60
2018-09-03T15:57:27.692Z,19.50
2018-09-03T15:59:57.001Z,19.40
2018-09-03T16:02:26.398Z,19.10
2018-09-03T16:04:55.647Z,19.00
2018-09-03T16:07:25.083Z,18.80
2018-09-03T16:09:54.605Z,18.70
2018-09-03T16:12:24.177Z,18.60
2018-09-03T16:14:53.371Z,18.50
2018-09-03T16:17:23.086Z,18.30
2018-09-03T16:19:52.131Z,18.20
2018-09-03T16:22:21.745Z,18.20
2018-09-03T16:24:51.728Z,18.20
2018-09-03T16:27:21.221Z,18.10
2018-09-03T16:29:50.356Z,18.20
2018-09-03T16:32:19.834Z,18.20
2018-09-03T16:34:49.271Z,18.00
2018-09-03T16:37:18.560Z,17.90
2018-09-03T16:39:48.237Z,17.90
2018-09-03T16:42:17.897Z,17.80
2018-09-03T16:44:47.809Z,17.80
2018-09-03T16:47:17.501Z,17.80
2018-09-03T16:49:47.238Z,17.80
2018-09-03T16:52:17.454Z,17.80
2018-09-03T16:54:47.551Z,17.80
2018-09-03T16:57:17.149Z,17.80
2018-09-03T16:59:46.387Z,17.90
2018-09-03T17:02:16.253Z,17.90
2018-09-03T17:04:45.973Z,17.90
2018-09-03T17:07:15.700Z,17.80
2018-09-03T17:09:45.141Z,17.80
2018-09-03T17:12:14.747Z,17.60
2018-09-03T17:14:44.481Z,17.50
2018-09-03T17:17:13.939Z,17.50
2018-09-03T17:19:43.485Z,17.40
2018-09-03T17:22:12.861Z,17.50
2018-09-03T17:24:42.464Z,17.40
2018-09-03T17:27:11.995Z,17.40
2018-09-03T17:29:41.704Z,17.40
2018-09-03T17:32:11.360Z,17.40
2018-09-03T17:34:40.889Z,17.50
2018-09-03T17:37:10.311Z,17.30
2018-09-03T17:39:40.010Z,17.40
2018-09-03T17:42:09.278Z,17.40
2018-09-03T17:44:38.967Z,17.50
2018-09-03T17:47:08.967Z,17.50
2018-09-03T17:49:38.680Z,17.60
2018-09-03T17:52:08.398Z,17.60
2018-09-03T17:54:38.719Z,17.60
2018-09-03T17:57:08.249Z,17.60
2018-09-03T17:59:38.224Z,17.60
2018-09-03T18:02:08.187Z,17.50
2018-09-03T18:04:37.643Z,17.40
2018-09-03T18:07:06.882Z,17.50
2018-09-03T18:09:36.221Z,17.60
2018-09-03T18:12:05.453Z,17.50
2018-09-03T18:14:34.833Z,17.40
2018-09-03T18:17:04.256Z,17.50
2018-09-03T18:19:33.771Z,17.60
2018-09-03T18:22:03.393Z,17.60
2018-09-03T18:24:32.657Z,17.60
2018-09-03T18:27:02.115Z,17.50
2018-09-03T18:29:32.805Z,17.50
2018-09-03T18:32:02.040Z,17.60
2018-09-03T18:34:31.278Z,17.60
2018-09-03T18:37:01.132Z,17.50
2018-09-03T18:39:30.472Z,17.40
2018-09-03T18:41:59.711Z,17.50
2018-09-03T18:44:29.277Z,17.50
2018-09-03T18:46:59.006Z,17.50
2018-09-03T18:49:28.145Z,17.40
2018-09-03T18:51:57.729Z,17.40
2018-09-03T18:54:27.288Z,17.40
2018-09-03T18:56:56.514Z,17.40
2018-09-03T18:59:26.216Z,17.40
2018-09-03T19:01:55.387Z,17.30
2018-09-03T19:04:24.552Z,17.30
2018-09-03T19:06:54.552Z,17.30
2018-09-03T19:09:23.790Z,17.40
2018-09-03T19:11:53.185Z,17.50
2018-09-03T19:14:23.048Z,17.50
2018-09-03T19:16:52.212Z,17.60
2018-09-03T19:19:21.490Z,17.50
2018-09-03T19:21:51.471Z,17.50
2018-09-03T19:24:20.991Z,17.50
2018-09-03T19:26:50.151Z,17.50
2018-09-03T19:29:19.461Z,17.40
2018-09-03T19:31:48.755Z,17.50
2018-09-03T19:34:18.162Z,17.50
2018-09-03T19:36:47.689Z,17.40
2018-09-03T19:39:17.191Z,17.40
2018-09-03T19:41:46.291Z,17.50
2018-09-03T19:44:15.626Z,17.60
2018-09-03T19:46:45.261Z,17.50
2018-09-03T19:49:14.530Z,17.60
2018-09-03T19:51:43.981Z,17.60
2018-09-03T19:54:13.585Z,17.50
2018-09-03T19:56:42.843Z,17.50
2018-09-03T19:59:12.189Z,17.40
2018-09-03T20:01:41.897Z,17.50
2018-09-03T20:04:11.148Z,17.50
2018-09-03T20:06:40.328Z,17.40
2018-09-03T20:09:09.792Z,17.40
2018-09-03T20:11:39.389Z,17.40
2018-09-03T20:14:08.980Z,17.30
2018-09-03T20:16:38.489Z,17.10
2018-09-03T20:19:07.621Z,17.10
2018-09-03T20:21:37.097Z,17.10
2018-09-03T20:24:06.348Z,17.10
2018-09-03T20:26:35.673Z,17.10
2018-09-03T20:29:05.190Z,17.10
2018-09-03T20:31:34.278Z,17.00
2018-09-03T20:34:03.523Z,17.10
2018-09-03T20:36:33.127Z,17.10
2018-09-03T20:39:02.276Z,17.10
2018-09-03T20:41:31.392Z,17.00
2018-09-03T20:44:01.264Z,16.90
2018-09-03T20:46:30.436Z,16.70
2018-09-03T20:48:59.767Z,16.70
2018-09-03T20:51:29.204Z,16.70
2018-09-03T20:53:58.077Z,16.70
2018-09-03T20:56:28.778Z,16.70
2018-09-03T20:58:58.252Z,16.70
2018-09-03T21:01:27.687Z,16.60
2018-09-03T21:03:56.911Z,16.50
2018-09-03T21:06:26.384Z,16.50
2018-09-03T21:08:55.565Z,16.40
2018-09-03T21:11:25.106Z,16.30
2018-09-03T21:13:54.974Z,16.20
2018-09-03T21:16:24.337Z,16.00
2018-09-03T21:18:53.648Z,16.10
2018-09-03T21:32:02.526Z,16.00
2018-09-03T21:34:31.861Z,15.90
2018-09-03T21:37:01.318Z,15.90
2018-09-03T21:39:30.494Z,15.80
2018-09-03T21:41:59.994Z,16.00
2018-09-03T21:44:29.197Z,15.90
2018-09-03T21:46:58.887Z,16.00
2018-09-03T21:49:28.554Z,16.00
2018-09-03T21:51:57.994Z,15.90
2018-09-03T21:54:27.456Z,15.90
2018-09-03T21:56:56.924Z,15.90
2018-09-03T21:59:26.221Z,15.90
2018-09-03T22:01:55.558Z,15.80
2018-09-03T22:04:24.969Z,15.80
2018-09-03T22:06:54.543Z,15.80
2018-09-03T22:09:23.891Z,15.90
2018-09-03T22:11:53.108Z,16.00
2018-09-03T22:14:22.379Z,15.90
2018-09-03T22:16:51.841Z,15.80
2018-09-03T22:19:21.162Z,15.80
2018-09-03T22:21:50.638Z,15.80
2018-09-03T22:24:19.812Z,15.80
2018-09-03T22:26:49.076Z,15.80
2018-09-03T22:29:18.128Z,15.80
2018-09-03T22:31:47.530Z,15.80
2018-09-03T22:34:16.928Z,15.70
2018-09-03T22:36:46.369Z,15.70
2018-09-03T22:39:15.814Z,15.70
2018-09-03T22:41:45.154Z,15.70
2018-09-03T22:44:14.267Z,15.70
2018-09-03T22:46:43.957Z,15.60
2018-09-03T22:49:13.064Z,15.60
2018-09-03T22:51:42.333Z,15.60
2018-09-03T22:54:11.963Z,15.60
2018-09-03T22:56:41.291Z,15.70
2018-09-03T22:59:10.517Z,15.70
2018-09-03T23:01:39.781Z,15.50
2018-09-03T23:04:09.089Z,15.60
2018-09-03T23:06:38.558Z,15.50
2018-09-03T23:09:08.079Z,15.50
2018-09-03T23:11:37.424Z,15.40
2018-09-03T23:14:07.838Z,15.50
2018-09-03T23:16:37.043Z,15.40
2018-09-03T23:19:06.190Z,15.50
2018-09-03T23:21:35.497Z,15.50
2018-09-03T23:24:04.778Z,15.50
2018-09-03T23:26:34.058Z,15.60
2018-09-03T23:29:03.008Z,15.60
2018-09-03T23:31:32.541Z,15.60
2018-09-03T23:34:03.001Z,15.50
2018-09-03T23:36:32.599Z,15.40
2018-09-03T23:39:02.117Z,15.30
2018-09-03T23:41:31.452Z,15.40
2018-09-03T23:44:00.574Z,15.40
2018-09-03T23:46:30.100Z,15.30
2018-09-03T23:48:59.219Z,15.20
2018-09-03T23:51:28.448Z,15.20
2018-09-03T23:53:57.866Z,15.20
2018-09-03T23:56:27.261Z,15.20
2018-09-03T23:58:56.715Z,15.20
